aviador You're here:

WBGR Decoded Metar

MIRI in MALAYSIA
Report Time2017-09-26 03:00:00
UTC Time2017-09-26 03:44:58
Flight Rules vfr VFR
Wind110° at 04 kt
W.Decomp.*RWY 02: 4.0 kt RCW
W.Rank110° ranks 1
Current wind is above 110° avg. (3.2)
Visibility9999 m
Phenomena:N/A
Clouds:Few 016 Hf
Scattered 150 Hf
Broken 300 Hf
Expected CloudBase > 3,200 ft AGL from Temp-Dew spread
Ceiling30,000 ft
Temp31°C (ISA +16)
Dew Point23°C (62% RH)
Heat Index35.4°C
QNH1011 hPa
Density Alt2,339 ft
Elevation59 ft
Report Wrong Elevation
Raw Report
METAR COR WBGR 260300Z 11004KT 9999 FEW016 SCT150 BKN300 31/23 Q1011=

Extra information for WBGR:More info

Metar Taf Metar & Taf Last 4 Metars F.Rules Stats Wind Profile Meteogram Temp Stats Airport Information Weather charts Add Link Nearby VenuesMetar ALERT Operation Metar Decoded Social comments